Platzwetter Flugplatz Wels

Flugwetter Linz LOWL

[Quelle: ADDS]
METAR
LOWL 170850Z 25004KT 210V280 9999 FEW020 BKN042 05/02 Q1020 NOSIG =
LOWL 170515Z 1706/1806 27005KT 9999 BKN040 TX07/1714Z TN04/1706Z TEMPO 1706/1806 -RA
TAF
LOWL 170515Z 1706/1806 27005KT 9999 BKN040 TX07/1714Z TN04/1706Z TEMPO 1706/1806 -RA =

Flugwetter Salzburg LOWS

[Quelle: ADDS]
METAR
LOWS 170850Z VRB01KT 9999 FEW040 SCT070 BKN080 05/M01 Q1020 NOSIG =
LOWS 170515Z 1706/1806 VRB04KT 9999 BKN060 TX07/1714Z TN01/1706Z PROB40 TEMPO 1804/1806 4500 -DZRA
TAF
LOWS 170515Z 1706/1806 VRB04KT 9999 BKN060 TX07/1714Z TN01/1706Z PROB40 TEMPO 1804/1806 4500 -DZRA =

Wind - Verlauf

Windrichtung - Verlauf

Temperatur - Verlauf

Relative Luftfeuchtigkeit - Verlauf

Luftdruck - Verlauf

Cookies erleichtern die Bereitstellung unserer Dienste. Mit der Nutzung unserer Dienste erklären Sie sich damit einverstanden, dass wir Cookies verwenden.
Weitere Informationen Ok